• Join FlightAware (Why Join?)
  • Login
  • US Flag 
12:47AM EDT


 

Airport Tracker/Info


-or-


 

Live Flight TrackerFlight Track Log ✈ UAL6044 ✈ 19-Apr-2013 ✈ KIND - KIAD

Flight Track Log - Related Links

Times and Time Zones

All times are in EDT time to prevent confusion due to time zone crossing. See the UAL6044 flight status page for this flight to view local times or setup timezone preferences in your user account.

Time Position Orientation Groundspeed Altitude Reporting Facility
EDT Latitude Longitude Course Direction KTS MPH feet Rate Location/Type
04:31PM 39.7000 -86.3000 79° East 146 168 1,500  Level Indianapolis TRACON
04:32PM 39.6667 -86.3167 201° Southwest 167 192 2,900 2,220 Climbing Indianapolis TRACON
04:32PM 39.6167 -86.3333 194° South 233 268 4,900 2,400 Climbing Indianapolis TRACON
04:34PM 39.7760 -85.8571 83° East  Level FlightAware Approximate
04:34PM 39.5786 -86.2622 125° Southeast 297 342 7,700  Level Indianapolis Center
04:35PM 39.7942 -85.7133 79° East  Level FlightAware Approximate
04:35PM 39.6058 -86.1597 71° East 304 350 10,100  Level Indianapolis Center
04:36PM 39.8161 -85.5703 79° East  Level FlightAware Approximate
04:36PM 39.6408 -86.0433 69° East 325 374 11,800  Level Indianapolis Center
04:37PM 39.6806 -85.9236 67° East 347 399 14,200 2,220 Climbing Indianapolis Center
04:38PM 39.7178 -85.7925 70° East 366 421 16,400 1,980 Climbing Indianapolis Center
04:39PM 39.7569 -85.6658 68° East 373 429 18,400 1,800 Climbing Indianapolis Center
04:40PM 39.7978 -85.5325 68° East 388 447 20,200 1,560 Climbing Indianapolis Center
04:41PM 39.8469 -85.3706 68° East 407 468 21,700 1,260 Climbing Indianapolis Center
04:42PM 39.8875 -85.2219 70° East 427 491 22,900 1,200 Climbing Indianapolis Center
04:43PM 39.9128 -85.0594 78° East 448 516 24,300 1,500 Climbing Indianapolis Center
04:44PM 39.9269 -84.8972 83° East 449 517 26,000 1,260 Climbing Indianapolis Center
04:45PM 39.9322 -84.7367 87° East 440 506 27,000 480 Climbing Indianapolis Center
04:46PM 39.9394 -84.5756 87° East 443 510 27,100 420 Climbing Indianapolis Center
04:47PM 39.9461 -84.4114 87° East 446 513 27,900 1,200 Climbing Indianapolis Center
04:48PM 39.9517 -84.2447 87° East 456 525 29,600 1,500 Climbing Indianapolis Center
04:49PM 39.9575 -84.0589 88° East 438 504 31,000 660 Climbing Indianapolis Center
04:50PM 39.9628 -83.8908 88° East 454 522 31,000  Level Indianapolis Center
04:51PM 39.9672 -83.7261 88° East 450 518 31,000  Level Indianapolis Center
04:52PM 39.9717 -83.5658 88° East 434 499 31,000  Level Indianapolis Center
04:53PM 39.9753 -83.4028 88° East 435 501 31,000  Level Indianapolis Center
04:54PM 39.9811 -83.2333 87° East 459 528 31,000  Level Indianapolis Center
04:55PM 39.9856 -83.0656 88° East 457 526 31,000  Level Indianapolis Center
04:56PM 39.9886 -82.9042 89° East 443 510 31,000  Level Indianapolis Center
04:57PM 39.9928 -82.7478 88° East 429 494 31,000  Level Indianapolis Center
04:58PM 39.9950 -82.5806 89° East 454 522 31,000  Level Indianapolis Center
04:59PM 39.9992 -82.4075 88° East 472 543 31,000  Level Indianapolis Center
05:00PM 40.0022 -82.2331 89° East 478 550 31,000  Level Indianapolis Center
05:01PM 40.0014 -82.0647 90° East 462 532 31,000  Level Indianapolis Center
05:02PM 39.9717 -81.9000 103° East 397 457 31,000  Level Indianapolis Center
05:03PM 39.9464 -81.7672 104° East 379 436 31,000  Level Indianapolis Center
05:04PM 39.9189 -81.6281 104° East 391 450 31,000  Level Indianapolis Center
05:06PM 39.8889 -81.4772 104° East 423 487 31,000  Level Indianapolis Center
05:07PM 39.8603 -81.3322 104° East 445 512 31,000  Level Indianapolis Center
05:07PM 39.8483 -81.2564 102° East 430 495 31,000  Level Cleveland Center
05:08PM 39.8200 -81.1128 104° East 442 509 31,000  Level Cleveland Center
05:09PM 39.7892 -80.9586 105° East 442 509 31,000  Level Cleveland Center
05:10PM 39.7583 -80.8072 105° East 437 503 31,000  Level Cleveland Center
05:11PM 39.7253 -80.6533 106° East 437 503 31,000  Level Cleveland Center
05:12PM 39.6939 -80.4994 105° East 437 503 31,000  Level Cleveland Center
05:13PM 39.6625 -80.3431 105° East 437 503 31,000  Level Cleveland Center
05:14PM 39.6286 -80.1894 106° East 437 503 31,000  Level Cleveland Center
05:14PM 39.6106 -80.1008 105° East 440 506 31,000 -180 Level Washington Center
05:15PM 39.5789 -79.9428 105° East 440 506 30,800 -900 Descending Washington Center
05:16PM 39.5450 -79.7819 105° East 451 519 29,300 -1,620 Descending Washington Center
05:17PM 39.5192 -79.6217 102° East 451 519 27,600 -1,200 Descending Washington Center
05:18PM 39.4889 -79.4667 104° East 456 525 27,000 -360 Descending Washington Center
05:19PM 39.4603 -79.3119 103° East 451 519 26,900 -840 Descending Washington Center
05:20PM 39.4281 -79.1408 104° East 451 519 25,400 -2,160 Descending Washington Center
05:21PM 39.4011 -78.9919 103° East 437 503 22,600 -2,820 Descending Washington Center
05:22PM 39.3758 -78.8511 103° East 417 480 19,800 -2,520 Descending Washington Center
05:23PM 39.3503 -78.7131 103° East 407 468 17,700 -1,920 Descending Washington Center
05:24PM 39.3264 -78.5831 103° East 387 445 16,000 -1,860 Descending Washington Center
05:25PM 39.3025 -78.4561 104° East 377 434 14,000 -2,100 Descending Washington Center
05:26PM 39.2761 -78.3344 106° East 365 420 11,900 -1,500 Descending Washington Center
05:27PM 39.2725 -78.2164 92° East 336 387 11,000 -900 Descending Washington Center
05:28PM 39.2731 -78.0983 90° East 330 380 10,100 -1,020 Descending Washington Center
05:29PM 39.2731 -77.9831 90° East 330 380 9,000 -960 Descending Washington Center
05:30PM 39.2817 -77.8708 84° East 324 373 8,200 -1,080 Descending Washington Center
05:31PM 39.2625 -77.7764 105° East 302 348 6,900 -1,260 Descending Washington Center
05:32PM 39.2328 -77.6897 114° Southeast 270 311 5,700 -1,200 Descending Washington Center
05:33PM 39.2028 -77.6083 115° Southeast 259 298 4,500 -1,020 Descending Washington Center
05:34PM 39.1667 -77.5333 122° Southeast 218 251 3,700 -960 Descending Potomac TRACON
05:35PM 39.1333 -77.5000 142° Southeast 190 219 2,700 -1,020 Descending Potomac TRACON